Time;durP1;ratioP1;P1;durP2;ratioP2;P2;SDS_P1;SDS_P2;PMS_P1;PMS_P2;Temp;Humidity;BMP_temperature;BMP_pressure;BME280_temperature;BME280_humidity;BME280_pressure;Samples;Min_cycle;Max_cycle;Signal;HPM_P1;HPM_P2
2021/05/11 00:01:42;;;;;;;3.80;2.67;;;;;;;14.03;76.91;98237.41;3581552;40;20055;-67
2021/05/11 00:04:09;;;;;;;3.53;2.90;;;;;;;14.01;76.54;98242.16;3591146;40;20051;-68
2021/05/11 00:06:36;;;;;;;3.13;2.80;;;;;;;13.93;76.68;98232.66;3591434;40;20048;-68
2021/05/11 00:09:04;;;;;;;5.18;2.95;;;;;;;13.96;76.68;98229.53;3590497;40;20049;-67
2021/05/11 00:11:31;;;;;;;3.38;2.95;;;;;;;13.95;76.94;98214.63;3590043;40;20393;-68
2021/05/11 00:13:59;;;;;;;3.40;3.10;;;;;;;13.89;76.82;98202.25;3581750;40;20052;-68
2021/05/11 00:16:26;;;;;;;4.00;3.70;;;;;;;13.92;77.30;98220.41;3590646;40;20389;-66
2021/05/11 00:18:54;;;;;;;4.68;3.65;;;;;;;13.96;76.99;98221.56;3589216;40;20040;-67
2021/05/11 00:21:21;;;;;;;4.30;3.90;;;;;;;14.00;76.87;98217.41;3591448;40;20571;-67
2021/05/11 00:23:47;;;;;;;4.15;3.83;;;;;;;13.99;76.41;98222.94;3596608;40;20057;-67
2021/05/11 00:26:14;;;;;;;4.40;4.00;;;;;;;13.90;76.40;98224.31;3595633;40;20098;-66
2021/05/11 00:28:41;;;;;;;4.97;4.15;;;;;;;13.81;76.44;98221.19;3586424;40;20024;-66
2021/05/11 00:31:09;;;;;;;5.00;4.25;;;;;;;13.78;76.93;98214.47;3595806;40;20044;-67
2021/05/11 00:33:36;;;;;;;5.40;4.88;;;;;;;13.76;77.12;98221.88;3595804;40;20405;-67
2021/05/11 00:36:03;;;;;;;4.63;4.22;;;;;;;13.74;76.99;98231.91;3595796;40;20028;-67
2021/05/11 00:38:30;;;;;;;4.72;4.22;;;;;;;13.71;77.17;98226.22;3586512;40;20045;-67
2021/05/11 00:40:57;;;;;;;4.95;4.35;;;;;;;13.74;76.85;98212.50;3595792;40;20404;-67
2021/05/11 00:43:24;;;;;;;5.45;4.80;;;;;;;13.75;77.21;98209.59;3595890;40;20352;-68
2021/05/11 00:45:50;;;;;;;4.22;3.92;;;;;;;13.74;76.90;98199.22;3594878;40;20390;-67
2021/05/11 00:48:19;;;;;;;4.35;3.95;;;;;;;13.74;77.28;98208.00;3595215;40;20390;-67
2021/05/11 00:50:46;;;;;;;4.05;3.75;;;;;;;13.72;76.51;98212.75;3583790;40;20048;-67
2021/05/11 00:53:12;;;;;;;5.63;4.35;;;;;;;13.74;77.04;98215.16;3593776;40;20044;-67
2021/05/11 00:55:39;;;;;;;4.28;3.80;;;;;;;13.76;76.82;98205.94;3592723;40;20040;-67
2021/05/11 00:58:07;;;;;;;4.00;3.60;;;;;;;13.81;76.88;98210.56;3593005;40;20052;-68
2021/05/11 01:00:34;;;;;;;4.53;3.60;;;;;;;13.80;76.28;98201.78;3591794;40;20044;-68
2021/05/11 01:03:00;;;;;;;3.88;3.58;;;;;;;13.83;76.62;98206.63;3590487;40;20052;-65
2021/05/11 01:05:28;;;;;;;3.78;3.47;;;;;;;13.85;76.40;98206.41;3590500;40;20130;-68
2021/05/11 01:07:55;;;;;;;4.35;3.95;;;;;;;13.87;76.49;98209.63;3590986;40;20055;-68
2021/05/11 01:10:22;;;;;;;4.63;3.90;;;;;;;13.86;76.57;98213.34;3591060;40;20060;-67
2021/05/11 01:12:49;;;;;;;4.70;4.30;;;;;;;13.88;76.33;98224.56;3590025;40;20052;-67
2021/05/11 01:15:17;;;;;;;5.03;4.63;;;;;;;13.84;75.77;98226.06;3589253;40;20063;-67
2021/05/11 01:17:52;;;;;;;4.60;4.20;;;;;;;13.76;75.78;98213.91;3580242;40;20406;-67
2021/05/11 01:20:28;;;;;;;4.97;4.47;;;;;;;13.75;76.30;98206.94;3589622;40;20052;-67
2021/05/11 01:23:32;;;;;;;5.20;4.70;;;;;;;13.81;76.60;98202.59;3589670;40;20126;-67
2021/05/11 01:26:05;;;;;;;5.40;4.90;;;;;;;13.83;76.07;98188.03;3589042;40;20390;-67
2021/05/11 01:28:41;;;;;;;6.63;5.32;;;;;;;13.69;76.13;98180.50;3590311;40;20044;-66
2021/05/11 01:31:30;;;;;;;4.95;4.55;;;;;;;13.52;76.66;98165.22;3581560;40;20044;-66
2021/05/11 01:45:27;;;;;;;4.05;3.47;;;;;;;13.72;76.38;98186.19;3591300;40;20067;-67
2021/05/11 01:48:01;;;;;;;;;;;;;;;13.59;76.53;98176.56;3590218;40;20071;-68
2021/05/11 01:50:31;;;;;;;5.30;4.00;;;;;;;13.58;76.39;98171.47;3588706;40;19932;-66
2021/05/11 01:55:58;;;;;;;4.45;3.97;;;;;;;13.63;76.38;98160.97;3564936;40;20081;-67
2021/05/11 01:58:53;;;;;;;4.30;3.90;;;;;;;13.66;76.28;98149.06;3580499;40;20133;-67
2021/05/11 02:18:25;;;;;;;3.35;3.00;;;;;;;13.70;75.85;98147.59;3589908;40;20048;-67
2021/05/11 02:23:37;;;;;;;4.55;3.83;;;;;;;13.74;75.72;98136.28;3592430;40;20048;-67
2021/05/11 02:26:04;;;;;;;3.38;3.08;;;;;;;13.75;75.69;98148.50;3665322;22;20108;-65
2021/05/11 02:28:32;;;;;;;3.17;2.88;;;;;;;13.77;75.66;98156.28;3611596;39;20136;-65
2021/05/11 02:30:59;;;;;;;3.95;3.17;;;;;;;13.73;75.37;98171.84;3611061;39;20058;-65
2021/05/11 02:33:26;;;;;;;4.10;3.70;;;;;;;13.63;76.07;98174.25;3609221;39;20048;-65
2021/05/11 02:35:52;;;;;;;3.10;2.80;;;;;;;13.61;75.85;98182.44;3617556;39;20053;-64
2021/05/11 02:38:20;;;;;;;3.47;3.13;;;;;;;13.63;76.38;98191.00;3619591;39;20050;-66
2021/05/11 02:40:46;;;;;;;3.60;3.30;;;;;;;13.66;75.82;98189.72;3619769;39;20046;-65
2021/05/11 02:43:16;;;;;;;3.08;2.78;;;;;;;13.61;76.03;98193.06;3619666;39;20043;-65
2021/05/11 02:45:44;;;;;;;3.25;2.95;;;;;;;13.56;76.38;98182.31;3619536;39;20392;-65
2021/05/11 02:48:10;;;;;;;4.43;2.78;;;;;;;13.45;76.17;98191.06;3619193;39;20047;-66
2021/05/11 02:50:37;;;;;;;3.55;2.95;;;;;;;13.40;76.57;98190.13;3618078;39;20043;-66
2021/05/11 02:53:05;;;;;;;2.97;2.67;;;;;;;13.43;76.98;98177.22;3619403;39;20054;-66
2021/05/11 02:55:32;;;;;;;3.10;2.80;;;;;;;13.42;76.93;98162.28;3619493;39;20651;-65
2021/05/11 02:57:59;;;;;;;2.85;2.65;;;;;;;13.40;77.06;98169.69;3618758;39;20065;-64
2021/05/11 03:00:27;;;;;;;3.85;3.08;;;;;;;13.40;76.78;98166.22;3618772;39;20043;-64
2021/05/11 03:02:56;;;;;;;3.25;2.95;;;;;;;13.41;77.08;98159.88;3618766;39;20047;-65
2021/05/11 03:05:23;;;;;;;3.10;2.80;;;;;;;13.42;76.66;98146.38;3618787;39;20035;-64
2021/05/11 03:07:50;;;;;;;4.15;3.50;;;;;;;13.41;76.84;98143.94;3618510;39;20352;-64
2021/05/11 03:10:19;;;;;;;3.58;3.28;;;;;;;13.37;76.99;98139.09;3619109;39;20319;-64
2021/05/11 03:12:45;;;;;;;3.53;3.22;;;;;;;13.32;77.14;98141.63;3618220;39;20042;-65
2021/05/11 03:15:13;;;;;;;3.67;3.38;;;;;;;13.31;77.10;98137.34;3618655;39;20055;-65
2021/05/11 03:17:40;;;;;;;4.80;3.72;;;;;;;13.30;76.94;98134.91;3617521;39;20043;-64
2021/05/11 03:20:11;;;;;;;5.30;4.80;;;;;;;13.24;77.08;98130.50;3617643;39;20055;-65
2021/05/11 03:22:38;;;;;;;6.15;3.95;;;;;;;13.25;77.58;98134.78;3618557;39;20047;-66
2021/05/11 03:25:06;;;;;;;5.53;4.30;;;;;;;13.22;77.19;98146.59;3618111;39;20049;-65
2021/05/11 03:27:33;;;;;;;4.82;4.32;;;;;;;13.23;77.76;98139.50;3617910;39;20043;-65
2021/05/11 03:30:00;;;;;;;5.10;4.60;;;;;;;13.23;77.48;98137.66;3618590;39;20046;-65
2021/05/11 03:32:27;;;;;;;6.32;4.75;;;;;;;13.21;77.50;98138.88;3619903;39;20043;-66
2021/05/11 03:34:54;;;;;;;5.15;4.18;;;;;;;13.14;77.61;98141.63;3620038;39;20043;-65
2021/05/11 03:37:22;;;;;;;6.00;4.10;;;;;;;13.11;78.03;98140.25;3619382;39;20046;-65
2021/05/11 03:39:49;;;;;;;5.47;4.57;;;;;;;13.13;78.14;98124.88;3620032;39;20054;-65
2021/05/11 03:42:18;;;;;;;7.30;4.70;;;;;;;13.16;78.09;98136.09;3619181;39;20055;-65
2021/05/11 03:44:46;;;;;;;5.85;4.15;;;;;;;13.20;77.65;98127.47;3620137;39;20388;-66
2021/05/11 03:47:13;;;;;;;7.28;5.22;;;;;;;13.20;77.45;98127.47;3620108;39;20063;-66
2021/05/11 03:49:41;;;;;;;14.63;7.72;;;;;;;13.20;77.95;98135.44;3619907;39;20431;-66
2021/05/11 03:52:08;;;;;;;9.00;6.38;;;;;;;13.25;77.75;98137.44;3621987;39;20042;-66
2021/05/11 03:54:37;;;;;;;6.80;6.10;;;;;;;13.28;77.80;98126.38;3619981;39;20070;-66
2021/05/11 03:57:05;;;;;;;9.00;6.40;;;;;;;13.30;77.51;98125.09;3619534;39;20044;-65
2021/05/11 03:59:34;;;;;;;8.38;6.38;;;;;;;13.22;77.77;98120.06;3619650;39;20051;-66
2021/05/11 04:02:02;;;;;;;7.10;5.30;;;;;;;13.21;77.43;98113.16;3619778;39;20053;-66
2021/05/11 04:04:30;;;;;;;7.13;6.03;;;;;;;13.15;77.84;98106.09;3619854;39;20059;-64
2021/05/11 04:06:57;;;;;;;10.80;8.98;;;;;;;13.19;77.86;98090.53;3619700;39;20057;-65
2021/05/11 04:09:29;;;;;;;9.90;8.60;;;;;;;13.25;77.78;98071.88;3619832;39;20332;-66
2021/05/11 04:12:31;;;;;;;8.23;7.28;;;;;;;13.20;77.22;98060.31;3619739;39;20043;-65
2021/05/11 04:17:44;;;;;;;6.60;5.45;;;;;;;13.19;77.73;98071.97;3619387;39;20047;-65
2021/05/11 04:20:13;;;;;;;6.90;6.13;;;;;;;13.19;77.44;98083.38;3619818;39;20131;-66
2021/05/11 04:22:41;;;;;;;6.35;5.75;;;;;;;13.21;76.56;98076.00;3618744;39;20045;-66
2021/05/11 04:25:08;;;;;;;6.00;5.43;;;;;;;13.12;76.43;98077.38;3618576;39;20062;-66
2021/05/11 04:27:36;;;;;;;6.85;5.00;;;;;;;13.02;76.93;98087.69;3619386;39;20323;-66
2021/05/11 04:30:05;;;;;;;5.57;4.90;;;;;;;13.04;77.38;98098.91;3620018;39;20075;-66
2021/05/11 04:32:32;;;;;;;7.28;5.30;;;;;;;13.14;77.47;98105.31;3618827;39;20053;-66
2021/05/11 04:35:00;;;;;;;6.80;4.75;;;;;;;13.29;77.38;98106.75;3619495;39;20050;-67
2021/05/11 04:37:27;;;;;;;5.35;4.85;;;;;;;13.45;76.79;98106.09;3619643;39;20065;-66
2021/05/11 04:39:54;;;;;;;5.20;4.65;;;;;;;13.49;76.21;98112.56;3620060;39;20046;-67
2021/05/11 04:42:22;;;;;;;6.35;5.38;;;;;;;13.50;76.11;98108.06;3619259;39;20047;-67
2021/05/11 04:44:51;;;;;;;5.88;5.28;;;;;;;13.48;76.13;98120.78;3619895;39;20039;-67
2021/05/11 04:47:21;;;;;;;7.43;6.47;;;;;;;13.53;75.79;98119.03;3619512;39;20391;-65
2021/05/11 04:49:48;;;;;;;7.32;6.57;;;;;;;13.53;76.01;98118.22;3619504;39;20054;-65
2021/05/11 04:52:16;;;;;;;8.20;7.05;;;;;;;13.63;76.18;98127.28;3618507;39;20331;-66
2021/05/11 04:54:43;;;;;;;8.05;7.25;;;;;;;13.77;75.99;98117.22;3618661;39;20400;-66
2021/05/11 04:57:10;;;;;;;9.23;7.20;;;;;;;13.91;75.34;98109.03;3618516;39;20051;-65
2021/05/11 04:59:38;;;;;;;7.72;6.60;;;;;;;14.01;75.18;98098.66;3621485;39;20046;-64
2021/05/11 05:02:06;;;;;;;7.15;6.22;;;;;;;14.11;74.68;98090.88;3622703;39;20046;-65
2021/05/11 05:04:36;;;;;;;6.95;6.05;;;;;;;14.10;74.86;98076.78;3622355;39;20309;-65
2021/05/11 05:07:04;;;;;;;7.25;5.93;;;;;;;14.14;74.83;98074.47;3622115;39;20043;-65
2021/05/11 05:09:32;;;;;;;5.65;5.15;;;;;;;14.04;74.87;98088.38;3620378;39;20054;-65
2021/05/11 05:11:59;;;;;;;6.63;6.03;;;;;;;14.02;75.09;98101.06;3619035;39;20051;-65
2021/05/11 05:14:26;;;;;;;7.20;6.50;;;;;;;14.01;74.60;98114.59;3620091;39;20296;-64
2021/05/11 05:16:53;;;;;;;7.38;6.57;;;;;;;13.99;74.62;98122.78;3620812;39;20392;-64
2021/05/11 05:19:22;;;;;;;21.73;19.13;;;;;;;13.96;74.61;98127.75;3622725;39;20320;-64
2021/05/11 05:21:49;;;;;;;12.00;9.75;;;;;;;13.97;74.87;98132.84;3622889;39;20331;-64
2021/05/11 05:24:20;;;;;;;8.55;7.32;;;;;;;13.99;74.95;98125.44;3623218;39;20645;-65
2021/05/11 05:26:51;;;;;;;6.47;5.88;;;;;;;13.97;75.11;98116.91;3623138;39;20051;-65
2021/05/11 05:29:19;;;;;;;7.32;6.63;;;;;;;14.05;74.82;98108.56;3623057;39;20043;-65
2021/05/11 05:31:46;;;;;;;7.43;6.65;;;;;;;14.08;74.15;98115.25;3620396;39;20051;-66
2021/05/11 05:34:13;;;;;;;7.68;6.45;;;;;;;14.00;74.24;98121.75;3620804;39;20324;-65
2021/05/11 05:36:41;;;;;;;8.73;6.68;;;;;;;14.01;74.39;98126.03;3620895;39;20328;-65
2021/05/11 05:39:09;;;;;;;7.28;6.40;;;;;;;14.01;74.33;98117.25;3622438;39;20047;-65
2021/05/11 05:41:36;;;;;;;8.07;7.28;;;;;;;14.03;74.54;98115.16;3621593;39;20054;-66
2021/05/11 05:44:04;;;;;;;7.05;6.35;;;;;;;14.03;74.22;98115.16;3622389;39;20353;-66
2021/05/11 05:46:31;;;;;;;7.63;6.90;;;;;;;14.09;74.57;98106.28;3621941;39;20067;-66
2021/05/11 05:48:59;;;;;;;7.28;6.57;;;;;;;14.11;74.08;98097.00;3622911;39;20082;-66
2021/05/11 05:51:27;;;;;;;7.88;7.03;;;;;;;14.04;73.89;98084.88;3622888;39;20305;-65
2021/05/11 05:53:55;;;;;;;8.70;5.75;;;;;;;13.98;73.94;98099.91;3622486;39;20069;-66
2021/05/11 05:56:22;;;;;;;7.18;6.38;;;;;;;14.02;73.82;98110.88;3622786;39;20315;-66
2021/05/11 05:58:49;;;;;;;4.95;4.45;;;;;;;14.02;73.68;98126.81;3622351;39;20047;-65
2021/05/11 06:01:17;;;;;;;4.05;3.70;;;;;;;14.01;73.44;98130.53;3622406;39;20055;-65
2021/05/11 06:03:51;;;;;;;5.10;4.60;;;;;;;14.02;73.70;98122.31;3622230;39;20047;-65
2021/05/11 06:06:19;;;;;;;6.53;5.32;;;;;;;14.01;73.46;98117.25;3624223;39;20086;-65
2021/05/11 06:08:48;;;;;;;6.60;5.65;;;;;;;14.00;73.41;98127.06;3623000;39;20039;-65
2021/05/11 06:11:21;;;;;;;6.35;5.75;;;;;;;13.94;73.46;98140.47;3624223;39;20050;-65
2021/05/11 06:13:54;;;;;;;4.70;4.30;;;;;;;13.94;73.70;98129.81;3624516;39;20067;-65
2021/05/11 06:19:08;;;;;;;4.80;4.40;;;;;;;13.97;73.59;98145.31;3624166;39;20039;-65
2021/05/11 06:21:35;;;;;;;4.57;4.18;;;;;;;14.04;73.34;98138.84;3623540;39;20047;-65
2021/05/11 06:24:04;;;;;;;6.65;5.50;;;;;;;14.11;73.47;98133.41;3621253;39;20130;-64
2021/05/11 06:26:32;;;;;;;5.85;5.25;;;;;;;14.11;73.33;98128.91;3619706;39;20051;-65
2021/05/11 06:29:01;;;;;;;6.63;5.93;;;;;;;14.08;73.44;98123.22;3620185;39;20039;-65
2021/05/11 06:31:28;;;;;;;7.15;6.00;;;;;;;14.03;73.44;98117.81;3620421;39;20054;-65
2021/05/11 06:33:55;;;;;;;6.25;5.47;;;;;;;13.96;74.07;98112.63;3620243;39;20039;-64
2021/05/11 06:36:23;;;;;;;6.35;5.75;;;;;;;13.97;73.91;98110.78;3619886;39;20047;-65
2021/05/11 06:38:57;;;;;;;8.52;6.50;;;;;;;13.93;74.02;98096.34;3619776;39;20054;-65
2021/05/11 06:41:25;;;;;;;7.13;6.43;;;;;;;13.81;74.46;98089.16;3619043;39;20051;-65
2021/05/11 06:43:57;;;;;;;7.18;6.47;;;;;;;13.83;74.83;98083.59;3620044;39;20312;-65
2021/05/11 06:49:27;;;;;;;9.35;8.45;;;;;;;13.95;74.79;98063.16;3618891;39;20079;-65
2021/05/11 06:54:40;;;;;;;10.82;9.75;;;;;;;14.07;74.44;98071.13;3620685;39;20050;-64
2021/05/11 06:57:07;;;;;;;7.25;6.55;;;;;;;14.03;73.73;98067.31;3620018;39;20073;-64
2021/05/11 06:59:35;;;;;;;4.22;3.83;;;;;;;13.97;74.06;98073.56;3620665;39;20415;-64
2021/05/11 07:02:03;;;;;;;5.25;3.63;;;;;;;13.93;74.58;98073.22;3620522;39;20051;-64
2021/05/11 07:04:31;;;;;;;4.63;3.47;;;;;;;13.94;74.58;98068.72;3625603;39;20381;-65
2021/05/11 07:06:59;;;;;;;6.22;3.50;;;;;;;14.02;74.44;98071.03;3626818;39;20039;-65
2021/05/11 07:10:03;;;;;;;5.57;3.60;;;;;;;14.11;74.35;98065.09;3627486;39;20047;-65
2021/05/11 07:15:18;;;;;;;3.83;3.42;;;;;;;14.06;73.90;98065.00;3625284;39;20043;-66
2021/05/11 07:17:45;;;;;;;4.78;3.83;;;;;;;14.07;73.93;98052.53;3621719;39;20066;-66
2021/05/11 07:20:13;;;;;;;4.53;4.13;;;;;;;14.05;73.62;98049.31;3621584;39;20047;-65
2021/05/11 07:22:40;;;;;;;4.53;4.13;;;;;;;14.06;74.37;98054.38;3621710;39;20043;-66
2021/05/11 07:25:11;;;;;;;4.35;3.78;;;;;;;14.07;73.46;98047.22;3621040;39;20054;-65
2021/05/11 07:28:05;;;;;;;6.28;3.70;;;;;;;14.02;73.36;98050.56;3621663;39;20043;-65
2021/05/11 07:30:35;;;;;;;3.72;3.00;;;;;;;14.06;73.84;98040.28;3621762;39;20061;-65
2021/05/11 07:33:07;;;;;;;4.60;4.10;;;;;;;14.11;74.01;98053.69;3621122;39;20083;-63
2021/05/11 07:35:36;;;;;;;4.85;3.30;;;;;;;14.07;73.99;98071.13;3624842;39;20095;-65
2021/05/11 07:38:04;;;;;;;4.60;4.20;;;;;;;14.09;74.38;98069.88;3625278;39;20053;-64
2021/05/11 07:40:32;;;;;;;4.10;3.58;;;;;;;14.16;73.85;98058.28;3623568;39;20127;-64
2021/05/11 07:42:59;;;;;;;4.78;4.03;;;;;;;14.18;73.25;98054.38;3621654;39;20408;-65
2021/05/11 07:45:32;;;;;;;4.88;4.45;;;;;;;14.12;73.31;98058.78;3622947;39;20054;-65
2021/05/11 08:02:45;;;;;;;4.20;3.30;;;;;;;14.40;72.91;98075.81;3623080;39;20051;-65
2021/05/11 08:05:19;;;;;;;4.32;3.85;;;;;;;14.40;73.22;98081.13;3621883;39;20035;-65
2021/05/11 08:10:38;;;;;;;4.15;3.75;;;;;;;14.44;73.17;98063.66;3624223;39;20047;-65
2021/05/11 08:15:53;;;;;;;4.65;4.25;;;;;;;14.60;73.39;98065.63;3622975;39;20047;-65
2021/05/11 08:18:27;;;;;;;4.30;3.38;;;;;;;14.61;73.22;98067.25;3623545;39;20069;-65
2021/05/11 08:29:08;;;;;;;3.75;3.45;;;;;;;14.46;73.56;98056.28;3579351;40;20390;-63
2021/05/11 08:31:36;;;;;;;3.50;3.20;;;;;;;14.43;73.07;98050.63;3579571;40;20130;-62
2021/05/11 08:34:05;;;;;;;5.07;3.72;;;;;;;14.44;73.07;98037.06;3578480;40;20106;-62
2021/05/11 08:36:33;;;;;;;4.22;3.40;;;;;;;14.34;73.07;98032.38;3579297;40;20061;-64
2021/05/11 08:39:01;;;;;;;4.00;3.60;;;;;;;14.22;73.45;98015.63;3578986;40;20326;-64
2021/05/11 08:41:28;;;;;;;4.57;4.15;;;;;;;14.15;73.37;97996.34;3578446;40;20053;-64
2021/05/11 08:43:55;;;;;;;4.72;3.72;;;;;;;14.15;73.58;97993.69;3579380;40;20421;-64
2021/05/11 08:46:23;;;;;;;5.07;4.57;;;;;;;14.06;74.26;97993.25;3579632;40;20394;-64
2021/05/11 08:48:52;;;;;;;5.00;3.78;;;;;;;14.06;74.31;97995.91;3579054;40;20060;-63
2021/05/11 08:51:23;;;;;;;4.32;3.92;;;;;;;14.09;74.45;97992.78;3579527;40;20032;-64
2021/05/11 08:54:19;;;;;;;3.55;3.20;;;;;;;14.06;74.58;98003.09;3579527;40;20052;-63
2021/05/11 09:05:15;;;;;;;6.30;5.57;;;;;;;14.30;74.55;98041.06;3578361;40;20045;-63
2021/05/11 09:08:09;;;;;;;9.63;6.40;;;;;;;14.37;74.38;98047.06;3578739;40;20051;-63
2021/05/11 09:24:53;;;;;;;5.40;3.72;;;;;;;14.28;74.39;98083.00;3567640;40;20048;-63
2021/05/11 09:27:26;;;;;;;6.22;3.83;;;;;;;14.30;74.76;98063.13;3579188;40;20049;-63
2021/05/11 09:30:09;;;;;;;4.22;3.83;;;;;;;14.29;74.92;98079.31;3579284;40;20130;-64
2021/05/11 09:32:46;;;;;;;4.28;3.47;;;;;;;14.27;74.55;98092.84;3579278;40;20492;-63
2021/05/11 09:54:40;;;;;;;3.80;3.38;;;;;;;14.48;74.70;98107.34;3580216;40;20060;-64
2021/05/11 09:57:29;;;;;;;;;;;;;;;14.50;74.50;98112.50;3581491;40;20342;-64
2021/05/11 10:32:03;;;;;;;3.10;2.35;;;;;;;14.86;73.05;98106.84;3578326;40;20064;-64
2021/05/11 10:38:32;;;;;;;;;;;;;;;14.86;72.63;98117.47;3578235;40;20134;-63
2021/05/11 10:41:09;;;;;;;2.67;2.40;;;;;;;14.93;73.07;98119.19;3580797;40;20293;-64
2021/05/11 10:44:22;;;;;;;2.50;2.15;;;;;;;14.78;72.63;98114.38;3580992;40;20374;-64
2021/05/11 10:46:55;;;;;;;4.28;2.70;;;;;;;14.76;73.03;98100.50;3580477;40;20044;-64
2021/05/11 10:49:29;;;;;;;2.75;2.05;;;;;;;14.81;73.10;98104.06;3580377;40;20080;-64
2021/05/11 10:52:11;;;;;;;2.83;2.30;;;;;;;14.96;72.68;98097.41;3580197;40;20333;-64
2021/05/11 10:54:40;;;;;;;2.60;1.90;;;;;;;14.98;72.43;98098.81;3578863;40;20099;-63
2021/05/11 10:57:26;;;;;;;3.35;2.25;;;;;;;15.08;72.29;98106.97;3579807;40;20057;-64
2021/05/11 11:00:09;;;;;;;2.28;1.60;;;;;;;15.09;71.80;98113.91;3580166;40;20126;-64
2021/05/11 11:02:46;;;;;;;3.05;2.47;;;;;;;15.01;71.98;98124.13;3579119;40;20361;-65
2021/05/11 11:05:41;;;;;;;2.15;1.88;;;;;;;14.98;72.45;98117.44;3579566;40;20398;-63
2021/05/11 11:08:32;;;;;;;1.85;1.42;;;;;;;14.98;71.92;98121.94;3580519;40;20041;-66
2021/05/11 11:11:14;;;;;;;2.30;1.98;;;;;;;14.93;72.43;98119.19;3580361;40;20089;-64
2021/05/11 11:13:43;;;;;;;1.80;1.70;;;;;;;14.93;72.17;98119.19;3579451;40;20045;-63
2021/05/11 11:16:11;;;;;;;1.75;1.65;;;;;;;14.96;72.22;98121.38;3580319;40;20446;-64
2021/05/11 11:18:39;;;;;;;1.75;1.65;;;;;;;14.93;71.91;98132.47;3579971;40;20330;-64
2021/05/11 11:21:33;;;;;;;1.50;1.40;;;;;;;14.95;71.70;98133.06;3580129;40;20045;-63
2021/05/11 11:24:01;;;;;;;4.28;2.08;;;;;;;14.93;72.20;98146.59;3578967;40;20396;-64
2021/05/11 11:26:30;;;;;;;2.58;1.67;;;;;;;14.92;72.58;98160.97;3580183;40;20382;-64
2021/05/11 11:28:59;;;;;;;22.73;17.08;;;;;;;14.91;72.22;98166.53;3579505;40;20049;-64
2021/05/11 11:31:28;;;;;;;35.40;23.92;;;;;;;14.76;72.60;98178.47;3580065;40;20059;-63
2021/05/11 11:34:14;;;;;;;13.80;9.30;;;;;;;14.77;73.43;98179.25;3579679;40;20025;-62
2021/05/11 11:36:45;;;;;;;3.88;3.40;;;;;;;14.73;73.33;98186.91;3579682;40;20048;-63
2021/05/11 11:39:19;;;;;;;5.28;4.50;;;;;;;14.70;73.43;98182.06;3579586;40;20318;-63
2021/05/11 11:41:47;;;;;;;5.28;3.17;;;;;;;14.70;73.58;98184.72;3578950;40;20044;-64
2021/05/11 11:44:16;;;;;;;5.13;3.30;;;;;;;14.68;73.96;98188.66;3579910;40;20303;-64
2021/05/11 11:46:44;;;;;;;6.78;3.30;;;;;;;14.66;74.19;98182.78;3578931;40;20413;-64
2021/05/11 11:49:18;;;;;;;3.58;2.80;;;;;;;14.70;73.89;98183.94;3579081;40;20413;-64
2021/05/11 11:51:57;;;;;;;6.38;3.88;;;;;;;14.70;73.83;98182.06;3579638;40;20077;-63
2021/05/11 11:54:32;;;;;;;8.90;4.03;;;;;;;14.76;74.20;98173.13;3580002;40;20053;-63
2021/05/11 12:00:00;;;;;;;2.83;2.28;;;;;;;14.76;73.79;98157.19;3548616;40;20054;-63
2021/05/11 12:02:28;;;;;;;5.30;3.05;;;;;;;14.88;74.01;98156.34;3551958;40;20056;-64
2021/05/11 12:05:09;;;;;;;7.22;3.95;;;;;;;15.02;73.81;98136.38;3566040;40;20052;-63
2021/05/11 12:07:53;;;;;;;3.58;2.67;;;;;;;15.13;73.03;98121.41;3579656;40;20055;-63
2021/05/11 12:10:22;;;;;;;4.55;3.70;;;;;;;15.13;72.81;98111.56;3580658;40;20479;-64
2021/05/11 12:12:49;;;;;;;4.70;3.67;;;;;;;15.15;72.82;98098.03;3580300;40;20337;-63
2021/05/11 12:15:21;;;;;;;5.40;3.95;;;;;;;15.23;73.70;98108.31;3579788;40;20126;-63
2021/05/11 12:17:58;;;;;;;6.00;3.70;;;;;;;15.39;72.93;98110.19;3578074;40;20055;-64
2021/05/11 12:20:26;;;;;;;3.00;2.70;;;;;;;15.44;72.78;98128.91;3578787;40;20045;-64
2021/05/11 12:23:14;;;;;;;5.13;2.83;;;;;;;15.68;72.26;98134.13;3579501;40;20045;-64
2021/05/11 12:25:43;;;;;;;3.28;2.50;;;;;;;15.88;71.80;98136.28;3578757;40;20037;-65
2021/05/11 12:28:11;;;;;;;2.92;2.03;;;;;;;15.95;71.25;98132.41;3579064;40;20051;-65
2021/05/11 12:30:40;;;;;;;3.40;1.83;;;;;;;16.07;69.54;98143.00;3579517;40;20051;-65
2021/05/11 12:33:12;;;;;;;7.57;3.85;;;;;;;16.27;69.64;98148.63;3579567;40;20048;-64
2021/05/11 12:35:41;;;;;;;12.80;6.25;;;;;;;16.52;69.38;98142.03;3578851;40;20131;-64
2021/05/11 12:38:15;;;;;;;7.80;3.72;;;;;;;16.65;69.05;98138.97;3578655;40;20045;-63
2021/05/11 12:40:52;;;;;;;3.65;2.85;;;;;;;16.71;67.78;98134.53;3579681;40;20075;-63
2021/05/11 12:43:44;;;;;;;2.72;2.15;;;;;;;16.40;68.13;98122.66;3580492;40;20053;-63
2021/05/11 12:46:16;;;;;;;3.50;1.70;;;;;;;16.39;68.62;98118.38;3580198;40;20045;-64
2021/05/11 12:48:51;;;;;;;6.35;3.38;;;;;;;16.45;68.76;98112.88;3579858;40;20056;-63
2021/05/11 12:51:45;;;;;;;8.20;5.65;;;;;;;16.53;68.50;98101.78;3580213;40;20048;-64
2021/05/11 12:54:28;;;;;;;7.27;4.87;;;;;;;16.57;68.17;98086.88;3579634;40;20045;-63
2021/05/11 12:59:53;;;;;;;2.40;1.60;;;;;;;16.18;67.41;98093.31;3579628;40;20045;-63
2021/05/11 13:02:43;;;;;;;2.50;2.30;;;;;;;16.22;67.66;98097.91;3579477;40;20048;-63
2021/05/11 13:14:50;;;;;;;1.63;1.48;;;;;;;16.43;68.02;98114.97;3579432;40;20049;-64
2021/05/11 13:17:06;;;;;;;3.67;2.60;;;;;;;16.19;68.27;98122.38;3578872;40;20107;-64
2021/05/11 13:22:36;;;;;;;2.97;1.50;;;;;;;16.11;67.93;98125.47;3577803;40;20045;-65
2021/05/11 13:27:55;;;;;;;7.35;6.65;;;;;;;16.19;68.13;98122.38;3577513;40;20130;-63
2021/05/11 13:30:33;;;;;;;7.03;6.35;;;;;;;16.20;68.46;98123.19;3579081;40;20048;-63
2021/05/11 13:33:12;;;;;;;7.97;7.15;;;;;;;16.11;68.22;98120.13;3579010;40;20057;-64
2021/05/11 13:35:39;;;;;;;4.35;3.95;;;;;;;16.07;68.80;98116.34;3578703;40;20049;-64
2021/05/11 13:38:07;;;;;;;12.52;11.25;;;;;;;16.07;68.92;98122.47;3578902;40;20056;-64
2021/05/11 13:40:34;;;;;;;11.27;9.38;;;;;;;16.09;69.37;98116.91;3578238;40;20044;-64
2021/05/11 13:43:02;;;;;;;12.20;10.27;;;;;;;16.07;68.98;98116.34;3579072;40;20045;-63
2021/05/11 13:45:30;;;;;;;4.57;2.25;;;;;;;15.99;69.50;98108.75;3578821;40;20067;-64
2021/05/11 13:48:00;;;;;;;2.33;1.20;;;;;;;15.94;69.31;98112.16;3578499;40;20386;-64
2021/05/11 13:50:41;;;;;;;4.53;1.55;;;;;;;15.92;69.19;98118.75;3578862;40;20056;-63
2021/05/11 13:53:08;;;;;;;3.13;2.30;;;;;;;15.97;69.15;98122.34;3579088;40;20170;-64
2021/05/11 13:55:41;;;;;;;1.63;1.50;;;;;;;15.95;69.00;98108.44;3578894;40;20041;-65
2021/05/11 14:03:42;;;;;;;1.88;1.63;;;;;;;15.90;69.37;98113.69;3579295;40;20106;-64
2021/05/11 14:06:09;;;;;;;2.70;1.60;;;;;;;15.98;69.84;98110.63;3579013;40;20076;-64
2021/05/11 14:08:37;;;;;;;4.28;2.90;;;;;;;16.06;69.81;98120.06;3577764;40;20045;-64
2021/05/11 14:11:04;;;;;;;6.00;3.60;;;;;;;16.17;70.15;98119.16;3577932;40;20075;-63
2021/05/11 14:13:31;;;;;;;12.25;7.30;;;;;;;16.20;69.92;98120.50;3578284;40;20041;-64
2021/05/11 14:15:59;;;;;;;6.10;3.20;;;;;;;16.21;69.76;98133.63;3578809;40;20076;-65
2021/05/11 14:18:27;;;;;;;5.68;4.13;;;;;;;15.98;70.23;98133.81;3577390;40;20045;-64
2021/05/11 14:20:55;;;;;;;5.38;2.83;;;;;;;15.82;70.40;98136.22;3578718;40;20057;-64
2021/05/11 14:23:22;;;;;;;8.88;5.72;;;;;;;15.74;70.65;98147.28;3578565;40;20044;-64
2021/05/11 14:25:50;;;;;;;8.27;6.07;;;;;;;15.76;70.70;98141.72;3612481;23;20060;-68
2021/05/11 14:28:18;;;;;;;5.13;3.67;;;;;;;15.71;70.97;98146.97;3581510;40;20291;-69
2021/05/11 14:30:45;;;;;;;10.60;6.43;;;;;;;15.63;71.36;98152.66;3583337;40;20326;-68
2021/05/11 14:33:14;;;;;;;3.72;2.60;;;;;;;15.64;71.38;98151.63;3580880;40;20045;-68
2021/05/11 14:35:41;;;;;;;2.28;2.08;;;;;;;15.61;71.07;98151.03;3578850;40;20077;-68
2021/05/11 14:38:09;;;;;;;2.45;2.13;;;;;;;15.60;71.02;98149.44;3580569;40;20130;-68
2021/05/11 14:40:36;;;;;;;5.53;3.45;;;;;;;15.50;71.03;98140.44;3580517;40;20049;-67
2021/05/11 14:43:04;;;;;;;2.30;1.80;;;;;;;15.46;70.78;98139.31;3580235;40;20056;-68
2021/05/11 14:45:31;;;;;;;2.72;1.88;;;;;;;15.33;70.63;98133.25;3581375;40;20114;-69
2021/05/11 14:47:59;;;;;;;1.63;1.52;;;;;;;15.31;70.92;98135.34;3581139;40;20047;-68
2021/05/11 14:50:27;;;;;;;5.50;4.45;;;;;;;15.41;71.68;98126.72;3581248;40;20089;-68
2021/05/11 14:52:56;;;;;;;3.05;2.65;;;;;;;15.50;70.95;98125.28;3581616;40;20083;-68